Time;durP1;ratioP1;P1;durP2;ratioP2;P2;SDS_P1;SDS_P2;PMS_P1;PMS_P2;Temp;Humidity;BMP_temperature;BMP_pressure;BME280_temperature;BME280_humidity;BME280_pressure;Samples;Min_cycle;Max_cycle;Signal;HPM_P1;HPM_P2
2022/09/20 00:01:20;;;;;;;4.93;0.80;;;12.00;99.90;;;;;;5116224;28;20050;-76
2022/09/20 00:03:48;;;;;;;5.68;1.27;;;12.00;99.90;;;;;;5116410;28;20039;-77
2022/09/20 00:06:17;;;;;;;3.45;0.68;;;11.90;99.90;;;;;;5117220;28;20118;-76
2022/09/20 00:08:44;;;;;;;7.32;0.85;;;11.90;99.90;;;;;;5117163;28;20081;-77
2022/09/20 00:11:14;;;;;;;5.93;0.93;;;11.90;99.90;;;;;;5133336;27;20043;-77
2022/09/20 00:13:41;;;;;;;8.93;1.10;;;11.90;99.90;;;;;;5115630;28;20100;-77
2022/09/20 00:16:10;;;;;;;5.70;0.90;;;11.90;99.90;;;;;;5116927;28;20329;-77
2022/09/20 00:18:36;;;;;;;7.63;0.75;;;11.80;99.90;;;;;;5117333;28;20035;-77
2022/09/20 00:21:03;;;;;;;9.27;0.90;;;11.90;99.90;;;;;;5116108;28;20492;-76
2022/09/20 00:23:29;;;;;;;5.95;0.70;;;11.80;99.90;;;;;;5117321;28;20063;-76
2022/09/20 00:26:02;;;;;;;5.35;0.90;;;11.70;99.90;;;;;;5116006;28;20351;-76
2022/09/20 00:28:28;;;;;;;6.70;0.75;;;11.70;99.90;;;;;;5115949;28;20040;-76
2022/09/20 00:30:55;;;;;;;6.22;0.80;;;11.80;99.90;;;;;;5098843;28;20488;-76
2022/09/20 00:35:06;;;;;;;7.18;0.73;;;11.70;99.90;;;;;;5116910;28;20100;-77
2022/09/20 00:36:11;;;;;;;4.38;0.60;;;11.70;99.90;;;;;;5115972;28;20040;-77
2022/09/20 00:38:36;;;;;;;5.90;0.70;;;11.60;99.90;;;;;;5098671;28;20043;-76
2022/09/20 00:41:02;;;;;;;5.72;0.70;;;11.70;99.90;;;;;;5117084;28;20044;-76
2022/09/20 00:43:42;;;;;;;6.88;0.57;;;11.60;99.90;;;;;;5149650;27;20060;-77
2022/09/20 00:46:19;;;;;;;5.75;0.90;;;11.60;99.90;;;;;;5115620;28;20087;-77
2022/09/20 00:48:45;;;;;;;8.27;1.00;;;11.60;99.90;;;;;;5150179;27;20043;-77
2022/09/20 00:51:15;;;;;;;4.93;0.80;;;11.50;99.90;;;;;;5115738;28;20046;-76
2022/09/20 00:53:47;;;;;;;8.30;0.93;;;11.50;99.90;;;;;;5116686;28;20047;-77
2022/09/20 00:56:20;;;;;;;5.03;0.63;;;11.50;99.90;;;;;;5116478;28;20332;-76
2022/09/20 00:58:55;;;;;;;7.72;1.00;;;11.40;99.90;;;;;;5116817;28;20074;-76
2022/09/20 01:01:21;;;;;;;4.82;0.73;;;11.50;99.90;;;;;;5119572;28;20071;-77
2022/09/20 01:03:47;;;;;;;7.30;0.90;;;11.50;99.90;;;;;;5120654;28;20059;-76
2022/09/20 01:06:15;;;;;;;5.63;0.82;;;11.40;99.90;;;;;;5120486;28;20039;-77
2022/09/20 01:08:44;;;;;;;5.53;1.20;;;11.40;99.90;;;;;;5119617;28;20039;-77
2022/09/20 01:11:10;;;;;;;6.53;0.70;;;11.50;99.90;;;;;;5120720;28;20040;-77
2022/09/20 01:13:35;;;;;;;4.35;0.80;;;11.50;99.90;;;;;;5153346;27;20057;-77
2022/09/20 01:16:04;;;;;;;6.88;0.80;;;11.40;99.90;;;;;;5102654;28;20084;-77
2022/09/20 01:18:35;;;;;;;3.90;0.68;;;11.40;99.90;;;;;;5119211;28;20043;-77
2022/09/20 01:21:02;;;;;;;5.15;1.33;;;11.40;99.90;;;;;;5119201;28;20048;-77
2022/09/20 01:23:31;;;;;;;5.28;0.70;;;11.40;99.90;;;;;;5120585;28;20136;-76
2022/09/20 01:26:10;;;;;;;4.35;0.70;;;11.20;99.90;;;;;;5102069;28;20047;-77
2022/09/20 01:28:37;;;;;;;3.75;0.85;;;11.20;99.90;;;;;;5119291;28;20101;-76
2022/09/20 01:31:27;;;;;;;3.03;0.60;;;11.20;99.90;;;;;;5119977;28;20097;-76
2022/09/20 01:34:41;;;;;;;7.75;1.20;;;11.20;99.90;;;;;;5120149;28;20039;-77
2022/09/20 01:37:30;;;;;;;5.50;0.60;;;11.20;99.90;;;;;;5118683;28;20035;-77
2022/09/20 01:40:10;;;;;;;6.50;0.77;;;11.20;99.90;;;;;;5120204;28;20036;-76
2022/09/20 01:42:40;;;;;;;6.32;0.88;;;11.20;99.90;;;;;;5118892;28;20044;-76
2022/09/20 01:45:29;;;;;;;3.35;0.55;;;11.20;99.90;;;;;;5118788;28;20036;-77
2022/09/20 01:48:19;;;;;;;8.82;0.60;;;11.20;99.90;;;;;;5119637;28;20047;-77
2022/09/20 01:51:22;;;;;;;7.25;0.75;;;11.10;99.90;;;;;;5118674;28;20445;-77
2022/09/20 01:54:18;;;;;;;6.82;0.98;;;11.10;99.90;;;;;;5118557;28;20054;-76
2022/09/20 01:57:02;;;;;;;4.60;0.82;;;11.00;99.90;;;;;;5118401;28;20036;-76
2022/09/20 01:59:50;;;;;;;5.95;0.85;;;11.00;99.90;;;;;;5101785;28;20071;-76
2022/09/20 02:02:37;;;;;;;2.75;0.50;;;11.10;99.90;;;;;;5152814;27;20122;-77
2022/09/20 02:05:09;;;;;;;7.85;1.25;;;11.10;99.90;;;;;;5119740;28;20044;-76
2022/09/20 02:08:00;;;;;;;6.45;0.88;;;11.00;99.90;;;;;;5101476;28;20043;-76
2022/09/20 02:10:54;;;;;;;4.07;0.77;;;11.10;99.90;;;;;;5118213;28;20077;-76
2022/09/20 02:13:19;;;;;;;6.25;0.63;;;11.00;99.90;;;;;;5152665;27;20083;-76
2022/09/20 02:16:00;;;;;;;7.15;0.88;;;10.90;99.90;;;;;;5118952;28;20086;-76
2022/09/20 02:18:44;;;;;;;10.15;1.10;;;10.70;99.90;;;;;;5101252;28;20454;-76
2022/09/20 02:21:19;;;;;;;5.18;0.60;;;10.70;99.90;;;;;;5152828;27;20057;-77
2022/09/20 02:23:47;;;;;;;9.98;0.80;;;10.70;99.90;;;;;;5152448;27;20059;-77
2022/09/20 02:26:41;;;;;;;6.88;1.20;;;10.70;99.90;;;;;;5152508;27;20328;-76
2022/09/20 02:29:19;;;;;;;3.30;0.73;;;10.60;99.90;;;;;;5117802;28;20420;-76
2022/09/20 02:32:16;;;;;;;3.95;0.73;;;10.60;99.90;;;;;;5118673;28;20043;-76
2022/09/20 02:34:56;;;;;;;4.90;0.70;;;10.70;99.90;;;;;;5101806;28;20047;-76
2022/09/20 02:37:42;;;;;;;7.38;0.77;;;10.70;99.90;;;;;;5118940;28;20046;-76
2022/09/20 02:40:19;;;;;;;8.02;0.60;;;10.70;99.90;;;;;;5152307;27;20104;-76
2022/09/20 02:42:56;;;;;;;9.68;0.90;;;10.60;99.90;;;;;;5151798;27;20048;-76
2022/09/20 02:45:27;;;;;;;4.85;0.60;;;10.60;99.90;;;;;;5117294;28;20443;-77
2022/09/20 02:48:00;;;;;;;2.15;0.50;;;10.60;99.90;;;;;;5118887;28;20047;-77
2022/09/20 02:50:26;;;;;;;7.07;0.80;;;10.60;99.90;;;;;;5118717;28;20070;-77
2022/09/20 02:53:19;;;;;;;3.22;0.60;;;10.60;99.90;;;;;;5117696;28;20043;-76
2022/09/20 02:56:10;;;;;;;5.22;1.13;;;10.70;99.90;;;;;;5118666;28;20046;-76
2022/09/20 02:58:52;;;;;;;3.60;0.90;;;10.60;99.90;;;;;;5117279;28;20043;-76
2022/09/20 03:01:23;;;;;;;5.70;0.93;;;10.60;99.90;;;;;;5118348;28;20314;-76
2022/09/20 03:04:07;;;;;;;10.93;0.75;;;10.50;99.90;;;;;;5151786;27;20044;-76
2022/09/20 03:06:42;;;;;;;6.05;0.88;;;10.50;99.90;;;;;;5151866;27;20149;-76
2022/09/20 03:09:16;;;;;;;5.60;1.20;;;10.60;99.90;;;;;;5118077;28;20364;-76
2022/09/20 03:11:59;;;;;;;3.92;0.50;;;10.60;99.90;;;;;;5117171;28;20062;-77
2022/09/20 03:14:35;;;;;;;5.07;0.80;;;10.50;99.90;;;;;;5116936;28;20047;-76
2022/09/20 03:17:01;;;;;;;;;;;10.40;99.90;;;;;;5118438;28;20491;-76
2022/09/20 03:19:38;;;;;;;2.20;0.60;;;10.40;99.90;;;;;;5117031;28;20011;-76
2022/09/20 03:22:30;;;;;;;2.33;0.80;;;10.40;99.90;;;;;;5151351;27;20456;-76
2022/09/20 03:25:22;;;;;;;3.58;0.45;;;10.40;99.90;;;;;;5116695;28;20118;-76
2022/09/20 03:28:30;;;;;;;3.25;0.63;;;10.40;99.90;;;;;;5151631;27;20045;-76
2022/09/20 03:31:11;;;;;;;2.92;0.50;;;10.40;99.90;;;;;;5099053;28;20051;-76
2022/09/20 03:33:43;;;;;;;6.35;0.60;;;10.30;99.90;;;;;;5099935;28;20435;-76
2022/09/20 03:36:34;;;;;;;3.13;0.60;;;10.20;99.90;;;;;;5116906;28;20097;-76
2022/09/20 03:39:14;;;;;;;6.30;1.05;;;10.30;99.90;;;;;;5151039;27;20498;-76
2022/09/20 03:42:00;;;;;;;3.35;0.47;;;10.30;99.90;;;;;;5151245;27;20324;-76
2022/09/20 03:45:04;;;;;;;7.63;1.17;;;10.40;99.90;;;;;;5098999;28;20130;-76
2022/09/20 03:47:56;;;;;;;7.60;0.90;;;10.30;99.90;;;;;;5116576;28;20465;-76
2022/09/20 03:50:44;;;;;;;4.70;0.52;;;10.20;99.90;;;;;;5085555;28;20108;-76
2022/09/20 03:53:38;;;;;;;5.53;0.63;;;10.20;99.90;;;;;;5117356;28;20051;-76
2022/09/20 03:56:34;;;;;;;8.20;1.00;;;10.30;99.90;;;;;;5099266;28;20036;-76
2022/09/20 03:59:26;;;;;;;7.38;0.52;;;10.30;99.90;;;;;;5116321;28;20046;-77
2022/09/20 04:02:18;;;;;;;5.70;0.80;;;10.30;99.90;;;;;;5116036;28;20039;-76
2022/09/20 04:04:55;;;;;;;4.38;0.57;;;10.40;99.90;;;;;;5105119;28;20075;-77
2022/09/20 04:07:27;;;;;;;3.15;0.70;;;10.50;99.90;;;;;;5116205;28;20047;-76
2022/09/20 04:10:15;;;;;;;6.72;1.27;;;10.70;99.90;;;;;;5116936;28;20035;-77
2022/09/20 04:12:59;;;;;;;4.70;0.60;;;10.70;99.90;;;;;;5117351;28;20066;-76
2022/09/20 04:15:49;;;;;;;6.15;0.88;;;10.80;99.90;;;;;;5115827;28;20043;-77
2022/09/20 04:18:34;;;;;;;5.28;0.73;;;10.80;99.90;;;;;;5150434;27;20035;-77
2022/09/20 04:21:29;;;;;;;5.20;0.80;;;10.90;99.90;;;;;;5116321;28;20042;-77
2022/09/20 04:24:03;;;;;;;6.15;1.20;;;10.90;99.90;;;;;;5116839;28;20043;-76
2022/09/20 04:26:33;;;;;;;2.30;0.40;;;11.00;99.90;;;;;;5116927;28;20036;-76
2022/09/20 04:29:18;;;;;;;2.15;0.63;;;11.00;99.90;;;;;;5115938;28;20047;-76
2022/09/20 04:31:56;;;;;;;4.50;0.93;;;11.00;99.90;;;;;;5098702;28;20447;-76
2022/09/20 04:36:27;;;;;;;2.97;0.60;;;11.10;99.90;;;;;;5150761;27;20075;-77
2022/09/20 04:37:23;;;;;;;5.10;0.65;;;11.10;99.90;;;;;;5120121;28;20047;-77
2022/09/20 04:40:02;;;;;;;5.07;0.70;;;11.10;99.90;;;;;;5121273;28;20062;-77
2022/09/20 04:42:54;;;;;;;3.00;0.60;;;11.20;99.90;;;;;;5121222;27;20397;-76
2022/09/20 04:45:29;;;;;;;6.35;0.70;;;11.30;99.90;;;;;;5081690;28;20130;-77
2022/09/20 04:48:23;;;;;;;6.32;0.93;;;11.40;99.90;;;;;;5120047;28;20051;-77
2022/09/20 04:51:24;;;;;;;2.35;0.50;;;11.40;99.90;;;;;;5120058;28;20043;-77
2022/09/20 04:54:20;;;;;;;3.42;0.55;;;11.30;99.90;;;;;;5041428;28;20131;-76
2022/09/20 04:56:49;;;;;;;5.25;0.85;;;11.20;99.90;;;;;;5120977;28;20074;-77
2022/09/20 04:59:33;;;;;;;4.30;0.50;;;11.10;99.90;;;;;;5102622;28;20127;-76
2022/09/20 05:02:40;;;;;;;2.00;0.43;;;11.20;99.90;;;;;;5120596;28;20055;-77
2022/09/20 05:05:20;;;;;;;2.00;0.70;;;11.20;99.90;;;;;;5107192;28;20063;-76
2022/09/20 05:08:13;;;;;;;4.65;0.70;;;11.20;99.90;;;;;;5120432;28;20432;-76
2022/09/20 05:10:51;;;;;;;2.90;0.57;;;11.10;99.90;;;;;;5153943;27;20048;-77
2022/09/20 05:13:35;;;;;;;3.42;0.60;;;11.10;99.90;;;;;;5154186;27;20367;-77
2022/09/20 05:16:11;;;;;;;2.63;0.95;;;11.20;99.90;;;;;;5119133;28;20302;-77
2022/09/20 05:18:58;;;;;;;5.63;0.80;;;11.20;99.90;;;;;;5120471;28;20444;-77
2022/09/20 05:21:32;;;;;;;3.72;0.77;;;11.20;99.90;;;;;;5102159;28;20124;-77
2022/09/20 05:24:20;;;;;;;3.25;0.50;;;11.20;99.90;;;;;;5153812;27;20055;-77
2022/09/20 05:27:36;;;;;;;3.45;0.70;;;11.20;99.90;;;;;;5119267;28;20049;-77
2022/09/20 05:30:24;;;;;;;4.00;0.80;;;11.30;99.90;;;;;;5066180;28;20083;-77
2022/09/20 05:33:09;;;;;;;2.70;0.52;;;11.40;99.90;;;;;;5119027;28;20044;-77
2022/09/20 05:36:05;;;;;;;1.98;0.70;;;11.50;99.90;;;;;;5119240;28;20071;-77
2022/09/20 05:39:01;;;;;;;5.28;0.45;;;11.50;99.90;;;;;;5120053;27;20428;-77
2022/09/20 05:41:39;;;;;;;5.80;0.88;;;11.60;99.90;;;;;;5120147;28;20052;-77
2022/09/20 05:44:11;;;;;;;3.33;0.63;;;11.70;99.90;;;;;;5101122;28;20066;-77
2022/09/20 05:46:56;;;;;;;3.78;0.70;;;11.70;99.90;;;;;;5118205;28;20055;-77
2022/09/20 05:49:48;;;;;;;5.70;0.80;;;11.80;99.90;;;;;;5118828;28;20425;-77
2022/09/20 05:52:57;;;;;;;5.53;0.85;;;11.90;99.90;;;;;;5118567;28;20413;-77
2022/09/20 05:55:45;;;;;;;5.47;0.60;;;12.00;99.90;;;;;;5152994;27;20109;-77
2022/09/20 05:58:11;;;;;;;4.53;0.60;;;12.00;99.90;;;;;;5118456;28;20492;-77
2022/09/20 06:00:48;;;;;;;3.78;0.60;;;12.10;99.90;;;;;;5119521;28;20048;-77
2022/09/20 06:03:32;;;;;;;5.32;0.90;;;12.20;99.90;;;;;;5119557;28;20130;-77
2022/09/20 06:06:22;;;;;;;5.15;0.77;;;12.20;99.90;;;;;;5152662;27;20439;-77
2022/09/20 06:08:59;;;;;;;4.60;0.70;;;12.20;99.90;;;;;;5153108;27;20052;-77
2022/09/20 06:11:44;;;;;;;5.57;0.90;;;12.20;99.90;;;;;;5152697;27;20131;-77
2022/09/20 06:14:47;;;;;;;5.60;0.80;;;12.20;99.90;;;;;;5152197;27;20424;-77
2022/09/20 06:17:33;;;;;;;3.35;0.60;;;12.10;99.90;;;;;;5100961;28;20420;-77
2022/09/20 06:20:17;;;;;;;3.28;0.55;;;12.10;99.90;;;;;;5152872;27;20035;-77
2022/09/20 06:22:53;;;;;;;2.95;0.47;;;12.10;99.90;;;;;;5118126;28;20089;-77
2022/09/20 06:25:44;;;;;;;3.65;0.63;;;12.10;99.90;;;;;;5118017;28;20451;-78
2022/09/20 06:28:16;;;;;;;5.07;0.50;;;12.20;99.90;;;;;;5118541;28;20044;-77
2022/09/20 06:30:53;;;;;;;2.50;0.50;;;12.30;99.90;;;;;;5117956;28;20046;-77
2022/09/20 06:33:21;;;;;;;6.35;0.90;;;12.40;99.90;;;;;;5118101;28;20092;-77
2022/09/20 06:41:25;;;;;;;8.02;1.10;;;12.40;99.90;;;;;;5118678;28;20104;-77
2022/09/20 06:41:50;;;;;;;5.88;0.98;;;12.20;99.90;;;;;;5117922;28;20044;-77
2022/09/20 06:44:15;;;;;;;5.00;1.00;;;12.40;99.90;;;;;;5100129;28;20094;-77
2022/09/20 06:46:42;;;;;;;12.90;1.50;;;12.60;99.90;;;;;;5118794;28;20043;-77
2022/09/20 06:49:08;;;;;;;8.35;1.42;;;12.70;99.90;;;;;;5117787;28;20043;-77
2022/09/20 06:51:36;;;;;;;6.80;0.90;;;12.80;99.90;;;;;;5152176;27;20046;-77
2022/09/20 06:54:02;;;;;;;10.35;1.05;;;12.80;99.90;;;;;;5118802;28;20325;-77
2022/09/20 06:56:35;;;;;;;10.13;1.27;;;13.00;99.90;;;;;;5117738;28;20324;-78
2022/09/20 06:59:01;;;;;;;11.15;1.30;;;13.20;99.90;;;;;;5116567;28;20048;-77
2022/09/20 07:01:27;;;;;;;8.80;2.00;;;13.20;99.90;;;;;;5117500;28;20043;-77
2022/09/20 07:03:52;;;;;;;5.72;0.82;;;13.20;99.90;;;;;;5118466;28;20101;-77
2022/09/20 07:06:18;;;;;;;9.32;1.10;;;13.40;99.90;;;;;;5100285;28;20124;-77
2022/09/20 07:08:45;;;;;;;3.95;0.65;;;13.40;99.90;;;;;;5117555;28;20043;-77
2022/09/20 07:11:15;;;;;;;7.20;0.95;;;13.60;99.90;;;;;;5117144;28;20117;-77
2022/09/20 07:13:42;;;;;;;7.07;0.98;;;13.70;99.90;;;;;;5118024;28;20047;-78
2022/09/20 07:16:12;;;;;;;3.70;0.70;;;13.70;99.90;;;;;;5116770;28;20046;-78
2022/09/20 07:18:40;;;;;;;5.85;0.73;;;13.80;99.90;;;;;;5116931;28;20039;-78
2022/09/20 07:21:06;;;;;;;3.25;0.68;;;13.90;99.90;;;;;;5116918;28;20044;-77
2022/09/20 07:23:31;;;;;;;4.35;0.65;;;14.00;99.90;;;;;;5116926;28;20111;-78
2022/09/20 07:25:59;;;;;;;6.80;1.00;;;14.10;99.90;;;;;;5116911;28;20078;-78
2022/09/20 07:28:26;;;;;;;4.82;0.80;;;14.20;99.90;;;;;;5117965;28;20035;-78
2022/09/20 07:30:53;;;;;;;4.88;0.70;;;14.20;99.90;;;;;;5116588;28;20035;-78
2022/09/20 07:33:20;;;;;;;2.67;0.77;;;14.30;99.90;;;;;;5117877;28;20039;-78
2022/09/20 07:35:53;;;;;;;7.13;0.90;;;14.40;99.90;;;;;;5100261;28;20146;-78
2022/09/20 07:38:20;;;;;;;3.60;0.70;;;14.40;99.90;;;;;;5116820;28;20123;-78
2022/09/20 07:40:56;;;;;;;8.00;0.80;;;14.50;99.90;;;;;;5116807;28;20100;-77
2022/09/20 07:43:23;;;;;;;4.30;0.60;;;14.50;99.90;;;;;;5116675;28;20195;-73
2022/09/20 07:45:54;;;;;;;8.00;0.90;;;14.40;99.90;;;;;;5117532;28;20043;-72
2022/09/20 07:48:39;;;;;;;5.43;0.70;;;14.50;99.90;;;;;;5117694;28;20035;-75
2022/09/20 07:51:08;;;;;;;5.78;0.73;;;14.60;99.90;;;;;;5117398;28;20032;-72
2022/09/20 07:53:35;;;;;;;5.40;0.47;;;14.50;99.90;;;;;;5117526;28;20043;-73
2022/09/20 07:56:11;;;;;;;2.40;0.57;;;14.50;99.90;;;;;;5117686;28;20051;-73
2022/09/20 07:58:37;;;;;;;5.75;0.52;;;14.50;99.90;;;;;;5117440;28;20042;-73
2022/09/20 08:01:05;;;;;;;6.07;0.50;;;14.50;99.90;;;;;;5117347;28;20424;-73
2022/09/20 08:03:32;;;;;;;9.50;0.80;;;14.50;99.90;;;;;;5117173;28;20059;-73
2022/09/20 08:06:00;;;;;;;6.03;0.60;;;14.60;99.90;;;;;;5117518;28;20032;-73
2022/09/20 08:08:27;;;;;;;5.95;1.25;;;14.70;99.90;;;;;;5117187;28;20439;-72
2022/09/20 08:11:00;;;;;;;4.90;0.60;;;14.70;99.90;;;;;;5118348;28;20118;-73
2022/09/20 08:13:27;;;;;;;10.63;0.98;;;14.70;99.90;;;;;;5119025;28;20043;-71
2022/09/20 08:16:01;;;;;;;9.02;0.70;;;14.70;99.90;;;;;;5115765;28;20293;-72
2022/09/20 08:18:27;;;;;;;4.35;0.60;;;14.80;99.90;;;;;;5117428;28;20101;-71
2022/09/20 08:20:53;;;;;;;2.95;0.70;;;14.80;99.90;;;;;;5117068;28;20040;-71
2022/09/20 08:23:19;;;;;;;5.38;0.60;;;14.90;99.90;;;;;;5117247;28;20050;-71
2022/09/20 08:25:46;;;;;;;4.43;0.82;;;14.90;99.90;;;;;;5117019;28;20333;-71
2022/09/20 08:28:11;;;;;;;6.60;0.52;;;14.70;99.90;;;;;;5116818;28;20044;-72
2022/09/20 08:30:37;;;;;;;4.78;0.80;;;14.90;99.90;;;;;;5116793;28;20046;-71
2022/09/20 08:33:03;;;;;;;6.05;0.95;;;15.10;99.90;;;;;;5116681;28;20039;-71
2022/09/20 08:35:29;;;;;;;8.50;0.80;;;15.50;99.90;;;;;;5116013;28;20032;-71
2022/09/20 08:37:56;;;;;;;4.20;0.45;;;15.50;99.90;;;;;;5116724;28;20088;-71
2022/09/20 08:40:24;;;;;;;4.32;0.45;;;15.50;99.90;;;;;;5117144;28;20063;-71
2022/09/20 08:42:52;;;;;;;4.63;0.70;;;15.40;99.90;;;;;;5116564;28;20047;-71
2022/09/20 08:45:21;;;;;;;3.30;0.50;;;15.40;99.90;;;;;;5116724;28;20108;-74
2022/09/20 08:47:52;;;;;;;5.80;0.68;;;15.60;99.90;;;;;;5116833;28;20043;-72
2022/09/20 08:50:18;;;;;;;7.25;0.65;;;15.70;99.90;;;;;;5116954;28;20122;-72
2022/09/20 08:52:50;;;;;;;5.20;0.80;;;15.70;99.90;;;;;;5116892;28;20051;-72
2022/09/20 08:55:20;;;;;;;5.47;0.80;;;15.70;99.90;;;;;;5116758;28;20336;-72
2022/09/20 08:57:51;;;;;;;7.60;0.63;;;15.80;99.90;;;;;;5116777;28;20031;-74
2022/09/20 09:00:21;;;;;;;8.10;1.05;;;15.80;99.90;;;;;;5116673;28;20168;-72
2022/09/20 09:02:52;;;;;;;7.25;0.60;;;16.00;99.90;;;;;;5116772;28;20036;-72
2022/09/20 09:05:36;;;;;;;4.45;0.60;;;16.20;99.90;;;;;;5116926;28;20043;-72
2022/09/20 09:08:34;;;;;;;8.00;0.88;;;16.30;99.90;;;;;;5116757;28;20043;-73
2022/09/20 09:11:14;;;;;;;6.43;0.50;;;16.00;99.90;;;;;;5095743;28;20059;-73
2022/09/20 09:13:52;;;;;;;3.10;0.50;;;16.10;99.90;;;;;;5105213;28;20040;-73
2022/09/20 09:16:23;;;;;;;4.47;0.40;;;16.10;99.90;;;;;;5104251;28;20119;-73
2022/09/20 09:18:50;;;;;;;3.70;0.85;;;16.00;99.90;;;;;;5114561;28;20036;-70
2022/09/20 09:21:24;;;;;;;4.10;0.40;;;16.10;99.90;;;;;;5109799;28;20056;-73
2022/09/20 09:24:26;;;;;;;3.35;0.40;;;16.30;99.70;;;;;;5098256;28;20337;-72
2022/09/20 09:27:15;;;;;;;4.65;0.45;;;16.50;99.80;;;;;;5037317;28;20046;-72
2022/09/20 09:29:54;;;;;;;2.47;0.25;;;16.70;99.80;;;;;;5097423;28;20092;-72
2022/09/20 09:32:29;;;;;;;3.80;0.50;;;17.10;99.10;;;;;;5099825;28;20044;-72
2022/09/20 09:35:17;;;;;;;7.13;0.75;;;17.30;98.70;;;;;;5099829;28;20042;-73
2022/09/20 09:37:59;;;;;;;4.95;0.50;;;17.40;98.90;;;;;;5099923;28;20047;-70
2022/09/20 09:40:27;;;;;;;4.90;0.20;;;17.30;98.70;;;;;;5099556;28;20058;-69
2022/09/20 09:42:55;;;;;;;2.03;0.30;;;17.30;98.40;;;;;;5099537;28;20048;-69
2022/09/20 09:45:39;;;;;;;7.35;0.40;;;17.30;98.10;;;;;;5099187;28;20052;-71
2022/09/20 09:48:29;;;;;;;1.80;0.20;;;17.30;98.10;;;;;;5099639;28;20048;-70
2022/09/20 09:51:11;;;;;;;2.65;0.20;;;17.20;98.30;;;;;;5099589;28;20114;-71
2022/09/20 09:53:37;;;;;;;2.28;0.25;;;17.40;98.40;;;;;;5099298;28;20111;-71
2022/09/20 09:56:36;;;;;;;2.97;0.55;;;17.50;98.00;;;;;;5099407;28;20028;-70
2022/09/20 09:59:23;;;;;;;3.90;0.40;;;17.30;98.40;;;;;;5099570;28;20294;-69
2022/09/20 10:01:54;;;;;;;5.43;0.40;;;17.40;98.40;;;;;;5099194;28;20051;-70
2022/09/20 10:04:35;;;;;;;4.20;0.28;;;17.20;97.90;;;;;;5099294;28;20361;-71
2022/09/20 10:07:22;;;;;;;4.68;0.55;;;17.30;98.40;;;;;;5103775;28;20040;-71
2022/09/20 10:10:06;;;;;;;4.75;0.60;;;17.20;97.70;;;;;;5109808;28;20043;-72
2022/09/20 10:12:58;;;;;;;4.32;0.50;;;17.20;98.50;;;;;;5106787;28;20063;-71
2022/09/20 10:15:29;;;;;;;4.95;0.55;;;17.30;98.50;;;;;;5096358;28;20490;-87
2022/09/20 10:18:16;;;;;;;4.05;0.40;;;17.20;98.00;;;;;;5099100;28;20101;-70
2022/09/20 10:20:54;;;;;;;7.10;0.80;;;17.20;97.80;;;;;;5098995;28;20040;-70
2022/09/20 10:23:31;;;;;;;7.35;0.80;;;17.60;98.30;;;;;;5131793;27;20059;-84
2022/09/20 10:26:21;;;;;;;3.45;0.63;;;17.90;97.90;;;;;;5132093;27;20437;-84
2022/09/20 10:29:07;;;;;;;4.00;0.70;;;17.70;97.60;;;;;;5097741;28;20110;-81
2022/09/20 10:31:46;;;;;;;4.30;0.45;;;18.00;98.40;;;;;;5060076;28;20132;-86
2022/09/20 10:34:27;;;;;;;3.05;0.47;;;18.10;97.90;;;;;;5131842;27;20044;-86
2022/09/20 10:36:57;;;;;;;5.63;0.88;;;17.90;97.30;;;;;;5114568;28;20051;-87
2022/09/20 10:39:29;;;;;;;2.97;0.28;;;18.00;97.70;;;;;;5097895;28;20040;-87
2022/09/20 10:45:22;;;;;;;7.93;0.60;;;18.20;97.80;;;;;;5130888;27;20059;-88
2022/09/20 10:48:22;;;;;;;3.03;0.55;;;17.80;97.60;;;;;;5131772;27;20044;-87
2022/09/20 10:51:03;;;;;;;4.03;0.30;;;17.80;98.10;;;;;;5039286;28;20512;-68
2022/09/20 10:53:28;;;;;;;7.03;0.70;;;17.90;98.20;;;;;;5094169;28;20425;-69
2022/09/20 10:56:09;;;;;;;6.68;0.70;;;18.30;98.20;;;;;;5131438;27;20044;-90
2022/09/20 10:58:46;;;;;;;7.35;0.60;;;18.80;97.30;;;;;;5115097;28;20032;-94
2022/09/20 11:01:28;;;;;;;4.20;0.60;;;18.70;97.40;;;;;;5115734;28;20039;-69
2022/09/20 11:04:06;;;;;;;5.35;0.70;;;18.40;97.60;;;;;;5130996;27;20040;-68
2022/09/20 11:07:03;;;;;;;6.15;0.77;;;18.60;97.70;;;;;;5131255;27;20389;-69
2022/09/20 11:09:35;;;;;;;7.20;1.10;;;18.50;97.40;;;;;;5131096;27;20044;-69
2022/09/20 11:12:37;;;;;;;7.65;1.00;;;18.30;97.10;;;;;;5097776;28;20058;-69
2022/09/20 11:15:13;;;;;;;6.82;1.00;;;18.30;97.70;;;;;;5097443;28;20137;-69
2022/09/20 11:17:46;;;;;;;8.10;0.75;;;18.40;97.60;;;;;;5098044;28;20042;-69
2022/09/20 11:20:24;;;;;;;3.72;0.60;;;18.30;98.00;;;;;;5098100;28;20075;-69
2022/09/20 11:23:00;;;;;;;5.88;0.80;;;18.10;98.10;;;;;;5097880;28;20044;-68
2022/09/20 11:25:31;;;;;;;5.67;0.40;;;18.20;97.60;;;;;;5097639;28;20120;-68
2022/09/20 11:28:15;;;;;;;8.43;0.98;;;18.20;97.50;;;;;;5096543;28;20119;-69
2022/09/20 11:30:58;;;;;;;4.20;0.65;;;18.10;96.90;;;;;;5130760;27;20080;-68
2022/09/20 11:33:41;;;;;;;6.32;1.45;;;18.10;97.20;;;;;;5097350;28;20085;-68
2022/09/20 11:36:14;;;;;;;7.53;1.10;;;17.90;96.90;;;;;;5097487;28;20386;-68
2022/09/20 11:38:43;;;;;;;4.60;0.95;;;18.00;97.10;;;;;;5097544;28;20040;-68
2022/09/20 11:41:11;;;;;;;4.50;0.52;;;18.20;96.70;;;;;;5097583;28;20032;-68
2022/09/20 11:43:41;;;;;;;5.40;0.63;;;18.70;96.50;;;;;;5096600;28;20135;-69
2022/09/20 11:46:12;;;;;;;4.60;0.65;;;19.20;96.60;;;;;;5096977;28;20032;-69
2022/09/20 11:48:57;;;;;;;6.82;0.60;;;19.00;96.50;;;;;;5097225;28;20036;-69
2022/09/20 11:51:23;;;;;;;7.53;0.73;;;19.10;96.10;;;;;;5097103;28;20040;-69
2022/09/20 11:54:01;;;;;;;4.47;0.50;;;19.10;96.40;;;;;;5096134;28;20440;-70
2022/09/20 11:56:29;;;;;;;8.45;0.88;;;19.20;95.80;;;;;;5097002;28;20088;-69
2022/09/20 11:59:00;;;;;;;4.30;0.68;;;19.50;95.60;;;;;;5097101;28;20040;-70
2022/09/20 12:01:37;;;;;;;3.75;0.60;;;20.10;95.40;;;;;;5097065;28;20443;-69
2022/09/20 12:04:03;;;;;;;6.07;0.60;;;20.50;94.80;;;;;;5097061;28;20069;-69
2022/09/20 12:06:37;;;;;;;4.85;0.40;;;20.80;95.60;;;;;;5096936;28;20040;-70
2022/09/20 12:09:25;;;;;;;6.82;0.77;;;20.50;96.10;;;;;;5096859;28;20036;-69
2022/09/20 12:11:51;;;;;;;5.05;0.35;;;20.30;96.40;;;;;;5096941;28;20063;-69
2022/09/20 12:14:24;;;;;;;4.78;0.70;;;19.70;96.20;;;;;;5095404;28;20044;-70
2022/09/20 12:16:50;;;;;;;3.15;0.85;;;19.00;96.50;;;;;;5098006;28;20051;-70
2022/09/20 12:19:31;;;;;;;3.58;0.60;;;19.10;96.80;;;;;;5098814;28;20043;-70
2022/09/20 12:21:57;;;;;;;4.25;0.60;;;19.20;96.10;;;;;;5096536;28;20086;-70
2022/09/20 12:24:49;;;;;;;8.30;1.20;;;19.00;96.20;;;;;;5096676;28;20509;-70
2022/09/20 12:27:28;;;;;;;3.65;0.38;;;18.70;96.00;;;;;;5092662;28;20060;-72
2022/09/20 12:30:20;;;;;;;5.75;0.60;;;18.50;96.40;;;;;;5079029;28;20048;-85
2022/09/20 12:32:47;;;;;;;4.82;0.60;;;18.10;96.70;;;;;;5089195;28;20048;-85
2022/09/20 12:35:35;;;;;;;3.08;0.40;;;17.80;97.00;;;;;;5129836;28;20325;-87
2022/09/20 12:38:19;;;;;;;10.95;0.70;;;17.70;97.20;;;;;;5129719;28;20444;-87
2022/09/20 12:41:07;;;;;;;5.07;0.52;;;17.50;97.00;;;;;;5112443;28;20097;-86
2022/09/20 12:43:37;;;;;;;5.47;0.55;;;17.60;97.60;;;;;;5129500;27;20070;-87
2022/09/20 12:46:04;;;;;;;7.13;0.90;;;17.90;97.40;;;;;;5112096;28;20119;-87
2022/09/20 12:48:35;;;;;;;30.88;1.25;;;17.90;97.50;;;;;;5078539;28;20036;-87
2022/09/20 12:54:10;;;;;;;4.85;0.70;;;18.20;97.50;;;;;;5129462;28;20430;-85
2022/09/20 12:56:39;;;;;;;4.35;0.63;;;18.40;97.70;;;;;;5114011;28;20047;-76
2022/09/20 12:59:22;;;;;;;6.50;0.70;;;18.90;97.00;;;;;;5099344;28;20040;-76
2022/09/20 13:01:48;;;;;;;6.00;0.52;;;19.40;97.10;;;;;;5100301;28;20040;-75
2022/09/20 13:04:39;;;;;;;7.65;0.70;;;20.00;96.80;;;;;;5100374;28;20332;-76
2022/09/20 13:07:28;;;;;;;5.30;0.60;;;20.50;96.40;;;;;;5133332;27;20341;-76
2022/09/20 13:09:54;;;;;;;3.78;0.50;;;20.80;96.40;;;;;;5100273;28;20044;-76
2022/09/20 13:12:20;;;;;;;4.75;0.40;;;21.10;96.60;;;;;;5100310;28;20129;-76
2022/09/20 13:14:46;;;;;;;8.73;0.60;;;20.90;95.70;;;;;;5132962;27;20036;-76
2022/09/20 13:17:23;;;;;;;2.33;0.32;;;20.50;95.70;;;;;;5100156;28;20035;-76
2022/09/20 13:19:50;;;;;;;7.25;0.50;;;20.50;96.10;;;;;;5099278;28;20039;-76
2022/09/20 13:22:27;;;;;;;3.22;0.60;;;20.80;96.10;;;;;;5099718;28;20054;-78
2022/09/20 13:25:02;;;;;;;7.88;1.08;;;20.60;96.50;;;;;;5100758;28;20116;-76
2022/09/20 13:27:33;;;;;;;2.95;0.30;;;20.30;96.00;;;;;;5100208;28;20032;-76
2022/09/20 13:30:25;;;;;;;5.60;0.68;;;19.90;96.50;;;;;;5099820;28;20309;-76
2022/09/20 13:32:52;;;;;;;5.18;0.35;;;20.00;96.30;;;;;;5099498;28;20040;-75
2022/09/20 13:35:23;;;;;;;3.55;0.30;;;19.60;96.00;;;;;;5099920;28;20367;-75
2022/09/20 13:38:00;;;;;;;6.38;0.57;;;19.30;96.40;;;;;;5131443;27;20518;-76
2022/09/20 13:40:37;;;;;;;4.30;0.55;;;19.10;96.50;;;;;;5111577;28;20067;-75
2022/09/20 13:43:05;;;;;;;6.32;0.50;;;19.00;96.70;;;;;;5119895;28;20052;-76
2022/09/20 13:45:32;;;;;;;6.43;0.57;;;19.20;96.80;;;;;;5097545;28;20052;-76
2022/09/20 13:48:00;;;;;;;6.15;0.65;;;19.20;96.80;;;;;;5099512;28;20040;-77
2022/09/20 13:50:31;;;;;;;10.13;0.52;;;19.20;97.10;;;;;;5098366;28;20044;-77